createdAt,value
2018-02-04T00:01:04.251Z,9.57
2018-02-04T00:03:30.247Z,8.60
2018-02-04T00:05:56.331Z,7.30
2018-02-04T00:08:22.344Z,6.57
2018-02-04T00:10:48.356Z,7.00
2018-02-04T00:13:14.393Z,7.27
2018-02-04T00:15:40.408Z,6.97
2018-02-04T00:18:06.475Z,8.00
2018-02-04T00:20:32.490Z,8.17
2018-02-04T00:22:58.477Z,6.40
2018-02-04T00:25:24.559Z,7.60
2018-02-04T00:27:50.552Z,8.00
2018-02-04T00:30:16.600Z,7.70
2018-02-04T00:32:42.591Z,6.40
2018-02-04T00:35:08.705Z,7.20
2018-02-04T00:37:34.736Z,9.10
2018-02-04T00:40:00.724Z,8.50
2018-02-04T00:42:26.779Z,7.70
2018-02-04T00:44:52.805Z,8.23
2018-02-04T00:47:18.752Z,8.97
2018-02-04T00:49:44.752Z,7.17
2018-02-04T00:52:10.772Z,7.83
2018-02-04T00:54:36.737Z,6.30
2018-02-04T00:57:02.789Z,5.73
2018-02-04T00:59:28.832Z,5.73
2018-02-04T01:01:54.857Z,5.20
2018-02-04T01:04:20.796Z,5.50
2018-02-04T01:06:46.785Z,6.03
2018-02-04T01:09:12.760Z,5.60
2018-02-04T01:11:38.772Z,5.87
2018-02-04T01:14:04.861Z,5.10
2018-02-04T01:16:30.957Z,5.80
2018-02-04T01:18:56.897Z,4.80
2018-02-04T01:21:22.931Z,5.30
2018-02-04T01:23:48.868Z,5.23
2018-02-04T01:26:14.905Z,5.17
2018-02-04T01:28:40.963Z,5.47
2018-02-04T01:31:06.991Z,5.97
2018-02-04T01:33:33.081Z,6.93
2018-02-04T01:35:59.040Z,9.03
2018-02-04T01:38:25.051Z,7.30
2018-02-04T01:40:51.048Z,7.03
2018-02-04T01:43:17.516Z,5.53
2018-02-04T01:45:43.653Z,4.70
2018-02-04T01:48:09.660Z,6.00
2018-02-04T01:50:35.675Z,4.77
2018-02-04T01:53:01.753Z,5.87
2018-02-04T01:55:27.867Z,4.97
2018-02-04T01:57:53.872Z,4.93
2018-02-04T02:00:19.995Z,4.87
2018-02-04T02:02:46.032Z,5.67
2018-02-04T02:05:12.013Z,6.23
2018-02-04T02:07:38.024Z,5.47
2018-02-04T02:10:04.092Z,4.80
2018-02-04T02:12:30.121Z,6.50
2018-02-04T02:14:56.105Z,7.10
2018-02-04T02:17:22.173Z,8.83
2018-02-04T02:19:48.183Z,6.27
2018-02-04T02:22:14.196Z,7.67
2018-02-04T02:24:40.212Z,7.27
2018-02-04T02:27:06.214Z,7.40
2018-02-04T02:29:32.303Z,8.83
2018-02-04T02:31:58.276Z,9.37
2018-02-04T02:34:24.260Z,8.03
2018-02-04T02:36:50.270Z,8.00
2018-02-04T02:39:16.338Z,9.10
2018-02-04T02:41:42.365Z,8.43
2018-02-04T02:44:08.368Z,9.70
2018-02-04T02:46:34.349Z,9.17
2018-02-04T02:49:00.354Z,8.60
2018-02-04T02:51:26.461Z,9.87
2018-02-04T02:53:52.477Z,8.47
2018-02-04T02:56:18.476Z,7.70
2018-02-04T02:58:44.482Z,7.53
2018-02-04T03:01:10.533Z,7.50
2018-02-04T03:03:36.506Z,5.90
2018-02-04T03:06:02.466Z,7.37
2018-02-04T03:08:28.500Z,6.17
2018-02-04T03:10:54.496Z,5.47
2018-02-04T03:13:20.472Z,5.37
2018-02-04T03:15:46.520Z,5.70
2018-02-04T03:18:12.463Z,4.53
2018-02-04T03:20:38.453Z,5.53
2018-02-04T03:23:04.470Z,5.20
2018-02-04T03:25:30.540Z,4.83
2018-02-04T03:27:56.580Z,4.80
2018-02-04T03:30:22.977Z,4.17
2018-02-04T03:32:48.993Z,4.93
2018-02-04T03:35:14.987Z,4.77
2018-02-04T03:37:40.997Z,5.20
2018-02-04T03:40:06.947Z,6.03
2018-02-04T03:42:32.959Z,5.10
2018-02-04T03:44:58.976Z,4.70
2018-02-04T03:47:25.024Z,4.70
2018-02-04T03:49:50.992Z,8.67
2018-02-04T03:52:16.932Z,10.57
2018-02-04T03:54:43.208Z,7.63
2018-02-04T03:57:09.236Z,9.90
2018-02-04T03:59:35.321Z,7.33
2018-02-04T04:02:01.407Z,7.83
2018-02-04T04:04:27.469Z,7.97
2018-02-04T04:06:53.501Z,8.77
2018-02-04T04:09:19.514Z,8.67
2018-02-04T04:11:45.596Z,8.60
2018-02-04T04:14:11.612Z,8.67
2018-02-04T04:16:37.611Z,8.23
2018-02-04T04:19:03.669Z,7.50
2018-02-04T04:21:29.692Z,8.10
2018-02-04T04:23:55.770Z,7.43
2018-02-04T04:26:21.721Z,7.40
2018-02-04T04:28:47.781Z,6.60
2018-02-04T04:31:13.775Z,7.73
2018-02-04T04:33:39.825Z,8.40
2018-02-04T04:36:05.801Z,8.10
2018-02-04T04:38:31.813Z,9.37
2018-02-04T04:40:57.820Z,8.47
2018-02-04T04:43:23.905Z,8.37
2018-02-04T04:45:49.904Z,8.10
2018-02-04T04:48:15.912Z,9.57
2018-02-04T04:50:41.925Z,8.17
2018-02-04T04:53:07.935Z,9.10
2018-02-04T04:55:33.957Z,8.73
2018-02-04T04:57:59.952Z,8.10
2018-02-04T05:00:25.984Z,10.03
2018-02-04T05:02:51.981Z,7.30
2018-02-04T05:05:17.993Z,8.10
2018-02-04T05:07:44.066Z,9.47
2018-02-04T05:10:10.019Z,12.80
2018-02-04T05:12:35.944Z,11.57
2018-02-04T05:15:02.173Z,11.63
2018-02-04T05:17:28.092Z,12.00
2018-02-04T05:19:54.101Z,11.50
2018-02-04T05:22:20.115Z,10.43
2018-02-04T05:24:46.088Z,10.00
2018-02-04T05:27:12.102Z,10.23
2018-02-04T05:29:38.098Z,10.83
2018-02-04T05:32:04.140Z,8.87
2018-02-04T05:34:30.132Z,10.97
2018-02-04T05:36:56.163Z,10.97
2018-02-04T05:39:22.172Z,8.70
2018-02-04T05:41:48.089Z,9.77
2018-02-04T05:44:14.112Z,8.93
2018-02-04T05:46:40.124Z,8.40
2018-02-04T05:49:06.128Z,7.43
2018-02-04T05:51:32.326Z,8.10
2018-02-04T05:53:58.308Z,8.47
2018-02-04T05:56:24.341Z,7.03
2018-02-04T05:58:50.336Z,9.17
2018-02-04T06:01:16.354Z,8.03
2018-02-04T06:03:42.410Z,9.93
2018-02-04T06:06:08.450Z,11.93
2018-02-04T06:08:34.468Z,13.17
2018-02-04T06:11:00.580Z,10.63
2018-02-04T06:13:26.560Z,12.93
2018-02-04T06:15:52.593Z,10.73
2018-02-04T06:18:18.636Z,11.47
2018-02-04T06:20:44.821Z,12.80
2018-02-04T06:23:10.841Z,12.63
2018-02-04T06:25:36.874Z,10.50
2018-02-04T06:28:02.925Z,13.80
2018-02-04T06:30:28.896Z,12.97
2018-02-04T06:32:54.912Z,11.97
2018-02-04T06:35:20.920Z,12.83
2018-02-04T06:37:46.894Z,11.43
2018-02-04T06:40:12.894Z,10.63
2018-02-04T06:42:38.876Z,11.50
2018-02-04T06:45:04.981Z,12.20
2018-02-04T06:47:30.971Z,12.77
2018-02-04T06:49:56.917Z,13.07
2018-02-04T06:52:22.936Z,11.60
2018-02-04T06:54:48.927Z,12.13
2018-02-04T06:57:14.932Z,13.13
2018-02-04T06:59:40.925Z,12.20
2018-02-04T07:02:06.929Z,12.50
2018-02-04T07:04:32.908Z,11.00
2018-02-04T07:06:58.892Z,11.23
2018-02-04T07:09:24.897Z,10.27
2018-02-04T07:11:50.868Z,9.93
2018-02-04T07:14:16.892Z,10.53
2018-02-04T07:16:42.877Z,15.47
2018-02-04T07:19:08.860Z,62.83
2018-02-04T07:21:34.870Z,20.87
2018-02-04T07:24:00.814Z,12.90
2018-02-04T07:26:26.832Z,14.47
2018-02-04T07:28:52.832Z,13.60
2018-02-04T07:31:18.953Z,12.87
2018-02-04T07:33:44.949Z,12.80
2018-02-04T07:36:10.926Z,16.30
2018-02-04T07:38:36.965Z,16.10
2018-02-04T07:41:02.973Z,16.67
2018-02-04T07:43:29.056Z,17.70
2018-02-04T07:45:55.040Z,14.97
2018-02-04T07:48:21.052Z,13.77
2018-02-04T07:50:47.076Z,16.30
2018-02-04T07:53:13.060Z,13.17
2018-02-04T07:55:39.111Z,13.43
2018-02-04T07:58:05.287Z,13.33
2018-02-04T08:00:31.317Z,12.97
2018-02-04T08:02:57.345Z,14.47
2018-02-04T08:05:23.425Z,12.40
2018-02-04T08:07:49.441Z,13.03
2018-02-04T08:10:15.850Z,14.50
2018-02-04T08:12:41.872Z,13.43
2018-02-04T08:15:08.360Z,15.77
2018-02-04T08:17:34.508Z,17.70
2018-02-04T08:20:00.505Z,19.87
2018-02-04T08:22:26.539Z,16.50
2018-02-04T08:24:52.612Z,17.33
2018-02-04T08:27:18.591Z,15.17
2018-02-04T08:29:44.613Z,19.60
2018-02-04T08:32:10.638Z,16.47
2018-02-04T08:34:36.634Z,18.20
2018-02-04T08:37:02.657Z,18.73
2018-02-04T08:39:28.897Z,21.17
2018-02-04T08:41:54.897Z,20.93
2018-02-04T08:44:20.908Z,24.50
2018-02-04T08:46:46.920Z,23.93
2018-02-04T08:49:12.947Z,23.57
2018-02-04T08:51:38.961Z,22.23
2018-02-04T08:54:05.017Z,24.93
2018-02-04T08:56:30.991Z,20.40
2018-02-04T08:58:56.989Z,19.30
2018-02-04T09:01:22.995Z,18.70
2018-02-04T09:03:49.041Z,18.80
2018-02-04T09:06:15.073Z,21.87
2018-02-04T09:08:41.070Z,20.60
2018-02-04T09:11:07.100Z,23.10
2018-02-04T09:13:33.127Z,25.07
2018-02-04T09:15:59.114Z,23.03
2018-02-04T09:18:25.136Z,22.10
2018-02-04T09:20:51.095Z,22.80
2018-02-04T09:23:17.144Z,20.53
2018-02-04T09:25:43.148Z,20.23
2018-02-04T09:28:09.117Z,20.33
2018-02-04T09:30:35.130Z,20.87
2018-02-04T09:33:01.134Z,18.83
2018-02-04T09:35:27.150Z,18.77
2018-02-04T09:37:53.151Z,18.90
2018-02-04T09:40:19.124Z,17.40
2018-02-04T09:42:45.128Z,18.77
2018-02-04T09:45:11.101Z,19.00
2018-02-04T09:47:37.156Z,17.57
2018-02-04T09:50:03.383Z,17.10
2018-02-04T09:52:29.441Z,14.83
2018-02-04T09:54:55.495Z,17.70
2018-02-04T09:57:21.488Z,18.00
2018-02-04T09:59:47.504Z,18.80
2018-02-04T10:02:13.511Z,20.30
2018-02-04T10:04:39.684Z,17.70
2018-02-04T10:07:06.171Z,19.60
2018-02-04T10:09:32.405Z,19.60
2018-02-04T10:11:58.466Z,18.83
2018-02-04T10:14:24.477Z,19.03
2018-02-04T10:16:50.666Z,18.20
2018-02-04T10:19:16.713Z,19.60
2018-02-04T10:21:42.697Z,18.40
2018-02-04T10:24:08.738Z,17.10
2018-02-04T10:26:34.761Z,14.53
2018-02-04T10:29:00.707Z,15.63
2018-02-04T10:31:26.793Z,15.17
2018-02-04T10:33:52.788Z,15.20
2018-02-04T10:36:18.805Z,16.10
2018-02-04T10:38:44.809Z,15.83
2018-02-04T10:41:10.806Z,14.37
2018-02-04T10:43:36.857Z,12.80
2018-02-04T10:46:02.917Z,13.70
2018-02-04T10:48:28.933Z,14.33
2018-02-04T10:51:00.984Z,14.40
2018-02-04T10:53:27.079Z,14.60
2018-02-04T10:55:53.037Z,12.63
2018-02-04T10:58:19.176Z,17.10
2018-02-04T11:00:45.210Z,16.80
2018-02-04T11:03:11.544Z,15.10
2018-02-04T11:05:37.591Z,16.57
2018-02-04T11:08:03.622Z,15.93
2018-02-04T11:10:29.665Z,16.37
2018-02-04T11:12:55.715Z,14.97
2018-02-04T11:15:21.844Z,17.00
2018-02-04T11:17:47.936Z,14.33
2018-02-04T11:20:13.988Z,13.57
2018-02-04T11:22:40.055Z,15.50
2018-02-04T11:25:06.086Z,15.10
2018-02-04T11:27:32.204Z,13.30
2018-02-04T11:29:58.243Z,13.60
2018-02-04T11:32:24.269Z,11.47
2018-02-04T11:34:50.416Z,11.90
2018-02-04T11:37:16.450Z,11.73
2018-02-04T11:39:42.545Z,13.00
2018-02-04T11:42:08.584Z,12.20
2018-02-04T11:44:34.609Z,11.93
2018-02-04T11:47:00.700Z,13.30
2018-02-04T11:49:26.778Z,12.63
2018-02-04T11:51:52.869Z,13.43
2018-02-04T11:54:18.933Z,11.13
2018-02-04T11:56:45.001Z,13.57
2018-02-04T11:59:11.010Z,12.40
2018-02-04T12:01:37.065Z,14.47
2018-02-04T12:04:03.072Z,12.00
2018-02-04T12:06:29.095Z,15.03
2018-02-04T12:08:55.088Z,15.10
2018-02-04T12:11:21.089Z,14.20
2018-02-04T12:13:47.180Z,12.83
2018-02-04T12:16:13.168Z,13.40
2018-02-04T12:18:39.181Z,15.73
2018-02-04T12:21:05.308Z,11.93
2018-02-04T12:23:31.339Z,12.60
2018-02-04T12:25:57.376Z,12.83
2018-02-04T12:28:23.478Z,14.40
2018-02-04T12:30:51.782Z,12.00
2018-02-04T12:33:17.861Z,12.33
2018-02-04T12:35:43.966Z,11.63
2018-02-04T12:38:10.017Z,14.10
2018-02-04T12:40:36.049Z,12.50
2018-02-04T12:43:02.500Z,12.47
2018-02-04T12:45:28.492Z,12.60
2018-02-04T12:47:54.516Z,13.40
2018-02-04T12:50:20.649Z,13.10
2018-02-04T12:52:46.727Z,12.93
2018-02-04T12:55:13.052Z,13.60
2018-02-04T12:57:39.092Z,12.70
2018-02-04T13:00:05.132Z,16.03
2018-02-04T13:02:31.150Z,11.67
2018-02-04T13:04:57.104Z,13.33
2018-02-04T13:07:23.097Z,13.57
2018-02-04T13:09:49.173Z,14.83
2018-02-04T13:12:15.178Z,15.13
2018-02-04T13:14:41.679Z,12.03
2018-02-04T13:17:07.729Z,13.10
2018-02-04T13:19:33.767Z,12.60
2018-02-04T13:21:59.797Z,14.27
2018-02-04T13:24:25.830Z,13.80
2018-02-04T13:26:52.199Z,12.87
2018-02-04T13:29:18.250Z,11.17
2018-02-04T13:31:44.392Z,12.53
2018-02-04T13:34:10.462Z,14.50
2018-02-04T13:36:36.430Z,12.70
2018-02-04T13:39:02.472Z,14.87
2018-02-04T13:41:28.584Z,17.37
2018-02-04T13:43:55.012Z,16.67
2018-02-04T13:46:21.065Z,15.10
2018-02-04T13:48:47.137Z,16.13
2018-02-04T13:51:13.183Z,15.57
2018-02-04T13:53:39.423Z,15.17
2018-02-04T13:56:05.800Z,15.30
2018-02-04T13:58:31.844Z,14.30
2018-02-04T14:00:57.931Z,14.90
2018-02-04T14:03:24.404Z,13.90
2018-02-04T14:05:50.425Z,15.47
2018-02-04T14:08:16.529Z,15.03
2018-02-04T14:10:42.519Z,15.97
2018-02-04T14:13:08.818Z,14.47
2018-02-04T14:15:34.604Z,18.17
2018-02-04T14:18:01.009Z,15.33
2018-02-04T14:20:27.058Z,31.50
2018-02-04T14:22:53.103Z,16.97
2018-02-04T14:25:21.024Z,16.93
2018-02-04T14:27:47.129Z,15.20
2018-02-04T14:30:13.148Z,15.60
2018-02-04T14:32:39.256Z,17.70
2018-02-04T14:35:05.400Z,15.57
2018-02-04T14:37:31.505Z,16.30
2018-02-04T14:39:58.083Z,14.00
2018-02-04T14:42:24.150Z,17.03
2018-02-04T14:44:50.499Z,15.60
2018-02-04T14:47:16.645Z,15.40
2018-02-04T14:49:42.683Z,16.80
2018-02-04T14:52:11.219Z,15.23
2018-02-04T14:54:37.284Z,16.17
2018-02-04T14:57:03.692Z,15.60
2018-02-04T14:59:29.734Z,17.60
2018-02-04T15:01:55.883Z,17.27
2018-02-04T15:04:21.971Z,15.93
2018-02-04T15:06:48.453Z,14.40
2018-02-04T15:09:14.527Z,15.73
2018-02-04T15:11:40.604Z,13.80
2018-02-04T15:14:07.383Z,13.80
2018-02-04T15:16:33.481Z,18.27
2018-02-04T15:18:59.512Z,15.67
2018-02-04T15:21:25.679Z,15.40
2018-02-04T15:23:51.753Z,14.60
2018-02-04T15:26:17.838Z,15.53
2018-02-04T15:28:43.918Z,16.00
2018-02-04T15:31:09.935Z,15.50
2018-02-04T15:33:35.966Z,15.77
2018-02-04T15:36:02.117Z,15.53
2018-02-04T15:38:28.217Z,16.63
2018-02-04T15:40:54.255Z,15.10
2018-02-04T15:43:20.364Z,16.23
2018-02-04T15:45:46.450Z,18.80
2018-02-04T15:48:12.502Z,16.10
2018-02-04T15:50:40.134Z,18.40
2018-02-04T15:53:06.328Z,18.37
2018-02-04T15:55:32.417Z,19.90
2018-02-04T15:57:58.456Z,17.30
2018-02-04T16:00:24.886Z,15.17
2018-02-04T16:02:51.016Z,18.43
2018-02-04T16:05:17.141Z,14.97
2018-02-04T16:07:43.215Z,17.77
2018-02-04T16:10:09.293Z,17.30
2018-02-04T16:12:35.361Z,17.90
2018-02-04T16:15:01.468Z,16.70
2018-02-04T16:17:27.844Z,20.80
2018-02-04T16:19:53.969Z,18.40
2018-02-04T16:22:20.065Z,21.43
2018-02-04T16:24:46.189Z,22.20
2018-02-04T16:27:12.330Z,21.53
2018-02-04T16:29:38.423Z,20.37
2018-02-04T16:32:04.473Z,20.47
2018-02-04T16:34:30.882Z,21.27
2018-02-04T16:36:56.941Z,19.97
2018-02-04T16:39:23.041Z,21.30
2018-02-04T16:41:49.112Z,28.07
2018-02-04T16:44:15.249Z,25.27
2018-02-04T16:46:41.324Z,27.63
2018-02-04T16:49:07.367Z,26.67
2018-02-04T16:51:33.905Z,27.37
2018-02-04T16:53:59.985Z,25.73
2018-02-04T16:56:30.344Z,26.17
2018-02-04T16:58:56.440Z,26.33
2018-02-04T17:01:22.500Z,27.00
2018-02-04T17:03:48.548Z,24.33
2018-02-04T17:06:14.560Z,26.83
2018-02-04T17:08:41.069Z,23.10
2018-02-04T17:11:07.112Z,25.67
2018-02-04T17:13:33.313Z,23.90
2018-02-04T17:15:59.398Z,24.97
2018-02-04T17:18:25.434Z,23.70
2018-02-04T17:20:51.593Z,23.40
2018-02-04T17:23:17.642Z,24.10
2018-02-04T17:25:44.072Z,23.47
2018-02-04T17:28:10.421Z,24.93
2018-02-04T17:30:36.444Z,26.73
2018-02-04T17:33:02.524Z,27.93
2018-02-04T17:35:28.609Z,28.07
2018-02-04T17:37:54.651Z,30.70
2018-02-04T17:40:20.698Z,27.37
2018-02-04T17:42:47.157Z,23.03
2018-02-04T17:45:13.229Z,25.13
2018-02-04T17:47:39.439Z,23.40
2018-02-04T17:50:05.510Z,25.07
2018-02-04T17:52:31.576Z,22.30
2018-02-04T17:54:57.640Z,22.00
2018-02-04T17:57:23.664Z,19.63
2018-02-04T17:59:49.710Z,20.73
2018-02-04T18:02:15.710Z,21.80
2018-02-04T18:04:41.761Z,19.90
2018-02-04T18:07:07.799Z,18.17
2018-02-04T18:09:33.834Z,18.80
2018-02-04T18:12:00.292Z,23.20
2018-02-04T18:14:26.414Z,22.50
2018-02-04T18:16:52.471Z,20.43
2018-02-04T18:19:18.564Z,23.27
2018-02-04T18:21:44.580Z,27.60
2018-02-04T18:24:11.073Z,23.77
2018-02-04T18:26:37.144Z,20.70
2018-02-04T18:29:03.237Z,22.10
2018-02-04T18:31:29.300Z,22.53
2018-02-04T18:33:55.256Z,24.50
2018-02-04T18:36:21.690Z,24.50
2018-02-04T18:38:47.732Z,18.47
2018-02-04T18:41:14.254Z,22.87
2018-02-04T18:43:40.339Z,22.20
2018-02-04T18:46:06.432Z,24.43
2018-02-04T18:48:32.818Z,23.20
2018-02-04T18:50:58.949Z,23.20
2018-02-04T18:53:25.015Z,27.23
2018-02-04T18:55:51.201Z,26.63
2018-02-04T18:58:17.264Z,25.07
2018-02-04T19:00:43.312Z,23.33
2018-02-04T19:03:09.338Z,26.60
2018-02-04T19:05:38.230Z,25.40
2018-02-04T19:08:04.676Z,25.70
2018-02-04T19:10:30.716Z,22.73
2018-02-04T19:12:56.742Z,21.33
2018-02-04T19:15:22.710Z,22.10
2018-02-04T19:17:49.073Z,33.40
2018-02-04T19:20:15.092Z,41.20
2018-02-04T19:22:41.108Z,41.30
2018-02-04T19:25:07.156Z,37.47
2018-02-04T19:27:33.177Z,34.13
2018-02-04T19:29:59.251Z,25.00
2018-02-04T19:32:25.250Z,21.30
2018-02-04T19:34:51.659Z,18.50
2018-02-04T19:37:17.683Z,25.10
2018-02-04T19:39:43.740Z,28.40
2018-02-04T19:42:09.766Z,27.03
2018-02-04T19:44:35.816Z,28.90
2018-02-04T19:47:01.869Z,29.20
2018-02-04T19:49:27.905Z,26.97
2018-02-04T19:51:54.300Z,24.83
2018-02-04T19:54:20.334Z,25.00
2018-02-04T19:56:46.372Z,23.47
2018-02-04T19:59:12.350Z,21.40
2018-02-04T20:01:38.376Z,19.17
2018-02-04T20:04:04.415Z,19.97
2018-02-04T20:06:30.445Z,17.70
2018-02-04T20:08:57.284Z,20.20
2018-02-04T20:11:23.309Z,17.57
2018-02-04T20:13:49.344Z,18.50
2018-02-04T20:16:15.358Z,18.70
2018-02-04T20:18:41.368Z,20.37
2018-02-04T20:21:07.428Z,21.27
2018-02-04T20:23:33.421Z,27.63
2018-02-04T20:25:59.455Z,30.23
2018-02-04T20:28:25.487Z,32.00
2018-02-04T20:30:51.964Z,29.40
2018-02-04T20:33:19.757Z,28.33
2018-02-04T20:35:45.733Z,30.53
2018-02-04T20:38:11.757Z,29.77
2018-02-04T20:40:37.768Z,32.07
2018-02-04T20:43:04.133Z,30.23
2018-02-04T20:45:30.161Z,31.63
2018-02-04T20:47:56.164Z,34.87
2018-02-04T20:50:22.209Z,33.63
2018-02-04T20:52:48.264Z,35.00
2018-02-04T20:55:14.633Z,36.63
2018-02-04T20:57:41.560Z,35.20
2018-02-04T21:00:07.548Z,34.87
2018-02-04T21:02:33.621Z,34.27
2018-02-04T21:04:59.669Z,33.60
2018-02-04T21:07:26.093Z,31.47
2018-02-04T21:09:52.204Z,35.33
2018-02-04T21:12:18.231Z,32.97
2018-02-04T21:14:44.340Z,35.40
2018-02-04T21:17:10.379Z,35.20
2018-02-04T21:19:36.444Z,33.57
2018-02-04T21:22:02.540Z,34.80
2018-02-04T21:24:28.609Z,34.60
2018-02-04T21:26:54.565Z,33.53
2018-02-04T21:29:21.020Z,30.13
2018-02-04T21:31:47.041Z,26.60
2018-02-04T21:34:13.152Z,29.50
2018-02-04T21:36:39.200Z,29.20
2018-02-04T21:39:05.307Z,28.30
2018-02-04T21:41:31.332Z,27.17
2018-02-04T21:43:57.337Z,24.97
2018-02-04T21:46:23.720Z,24.27
2018-02-04T21:48:49.753Z,23.70
2018-02-04T21:51:15.832Z,24.00
2018-02-04T21:53:41.969Z,23.00
2018-02-04T21:56:07.986Z,18.73
2018-02-04T21:58:34.047Z,22.77
2018-02-04T22:01:00.111Z,20.27
2018-02-04T22:03:26.507Z,19.03
2018-02-04T22:05:52.556Z,19.27
2018-02-04T22:08:18.781Z,18.27
2018-02-04T22:10:44.785Z,18.27
2018-02-04T22:13:10.900Z,18.17
2018-02-04T22:15:36.956Z,16.37
2018-02-04T22:18:03.052Z,16.77
2018-02-04T22:20:29.395Z,17.03
2018-02-04T22:22:55.407Z,18.40
2018-02-04T22:25:21.417Z,16.47
2018-02-04T22:27:47.523Z,19.00
2018-02-04T22:30:13.540Z,19.83
2018-02-04T22:32:39.620Z,18.63
2018-02-04T22:35:05.600Z,17.37
2018-02-04T22:37:31.993Z,19.40
2018-02-04T22:39:57.969Z,16.67
2018-02-04T22:42:23.982Z,19.30
2018-02-04T22:44:50.017Z,18.57
2018-02-04T22:47:15.987Z,19.40
2018-02-04T22:49:42.005Z,17.33
2018-02-04T22:52:07.947Z,19.30
2018-02-04T22:54:34.368Z,19.60
2018-02-04T22:57:00.435Z,13.20
2018-02-04T22:59:26.460Z,17.30
2018-02-04T23:01:52.543Z,15.33
2018-02-04T23:04:18.648Z,16.13
2018-02-04T23:06:45.005Z,16.93
2018-02-04T23:09:11.030Z,16.00
2018-02-04T23:11:37.060Z,15.70
2018-02-04T23:14:03.094Z,17.30
2018-02-04T23:16:29.100Z,16.23
2018-02-04T23:18:55.181Z,16.03
2018-02-04T23:21:21.259Z,14.87
2018-02-04T23:23:47.248Z,15.67
2018-02-04T23:26:13.272Z,15.40
2018-02-04T23:28:39.292Z,14.43
2018-02-04T23:31:05.655Z,14.67
2018-02-04T23:33:31.705Z,13.93
2018-02-04T23:35:57.750Z,15.07
2018-02-04T23:38:23.813Z,14.20
2018-02-04T23:40:49.920Z,13.03
2018-02-04T23:43:15.941Z,15.70
2018-02-04T23:45:41.968Z,14.60
2018-02-04T23:48:07.996Z,12.20
2018-02-04T23:50:34.018Z,13.80
2018-02-04T23:53:00.404Z,14.53
2018-02-04T23:55:26.440Z,13.03
2018-02-04T23:57:52.481Z,14.60
